Boncarbo, Colorado
Current Conditions -  °F | °C
As of 8:54 AM on Saturday 22 Nov 2014 (Local Time) from KTAD Reporting Station
Clear Clear  
Wind Chill: 35°   Ceiling: Unl
Heat Index: 41°   Visibility: 10mi
Dew Point: 19°   Wind: 9mph
Humidity: 41%   Direction: 290°WNW
Pressure: 29.9"   Gusts: NA
Location:  37.22°N, 104.7°W
Report Text: KTAD 221554Z AUTO 29008KT 10SM CLR 05/M07 A2990 RMK AO2 SLP118 T00501072
Loading
Personal Weather Stations






























Interactive Weather Map New forecast layout! Learn more

10-Day Weather Forecast

Advertisements
Track Severe Weather on mobile